Time;durP1;ratioP1;P1;durP2;ratioP2;P2;SDS_P1;SDS_P2;PMS_P1;PMS_P2;Temp;Humidity;BMP_temperature;BMP_pressure;BME280_temperature;BME280_humidity;BME280_pressure;Samples;Min_cycle;Max_cycle;Signal;HPM_P1;HPM_P2
2023/12/02 00:01:51;;;;;;;5.88;4.18;;;7.90;99.90;;;;;;4975789;28;20494;-79
2023/12/02 00:04:17;;;;;;;8.65;4.82;;;7.90;99.90;;;;;;4975863;28;20666;-80
2023/12/02 00:06:43;;;;;;;6.93;4.45;;;7.90;99.90;;;;;;4976232;28;20027;-79
2023/12/02 00:09:09;;;;;;;8.10;5.00;;;7.90;99.90;;;;;;4973154;28;20572;-80
2023/12/02 00:11:34;;;;;;;8.35;5.00;;;7.90;99.90;;;;;;4975717;28;20031;-80
2023/12/02 00:14:00;;;;;;;8.60;5.00;;;8.00;99.90;;;;;;4976903;28;20034;-80
2023/12/02 00:16:25;;;;;;;8.25;4.93;;;7.90;99.90;;;;;;4971690;28;20034;-80
2023/12/02 00:18:51;;;;;;;9.25;4.95;;;7.90;99.90;;;;;;4975735;28;20080;-80
2023/12/02 00:21:16;;;;;;;9.23;5.78;;;8.00;99.90;;;;;;4975042;28;20209;-80
2023/12/02 00:23:42;;;;;;;9.45;5.43;;;7.90;99.90;;;;;;4973331;28;20054;-79
2023/12/02 00:26:08;;;;;;;7.25;5.25;;;7.90;99.90;;;;;;4975725;28;20023;-80
2023/12/02 00:28:34;;;;;;;7.72;4.90;;;7.90;99.90;;;;;;4975548;28;20550;-80
2023/12/02 00:30:59;;;;;;;10.23;5.88;;;8.00;99.90;;;;;;4974423;28;20062;-80
2023/12/02 00:33:25;;;;;;;8.88;4.97;;;7.90;99.90;;;;;;4974466;28;20031;-80
2023/12/02 00:35:51;;;;;;;8.48;4.55;;;7.90;99.90;;;;;;4973508;28;20063;-79
2023/12/02 00:38:16;;;;;;;9.27;5.80;;;7.90;99.90;;;;;;4974944;28;20034;-80
2023/12/02 00:40:42;;;;;;;9.18;5.47;;;7.90;99.90;;;;;;4975335;28;20023;-79
2023/12/02 00:43:07;;;;;;;9.60;5.43;;;7.90;99.90;;;;;;4972919;28;20047;-79
2023/12/02 00:45:33;;;;;;;7.82;4.95;;;7.90;99.90;;;;;;4976081;28;20067;-80
2023/12/02 00:47:58;;;;;;;9.13;5.05;;;7.90;99.90;;;;;;4972123;28;20115;-80
2023/12/02 00:50:24;;;;;;;8.77;5.50;;;7.90;99.90;;;;;;4972974;28;20034;-79
2023/12/02 00:52:49;;;;;;;8.45;5.00;;;7.90;99.90;;;;;;4972898;28;20031;-80
2023/12/02 00:55:15;;;;;;;9.77;5.00;;;8.00;99.90;;;;;;4970416;28;20022;-80
2023/12/02 00:57:41;;;;;;;8.52;4.95;;;7.90;99.90;;;;;;4973570;28;20045;-80
2023/12/02 01:00:08;;;;;;;7.40;4.20;;;7.90;99.90;;;;;;4976584;28;20102;-80
2023/12/02 01:02:33;;;;;;;6.50;4.47;;;7.90;99.90;;;;;;4972393;28;20085;-80
2023/12/02 01:04:59;;;;;;;8.18;5.10;;;7.90;99.90;;;;;;4972392;28;20023;-80
2023/12/02 01:07:24;;;;;;;9.32;5.20;;;7.90;99.90;;;;;;4974210;28;20476;-80
2023/12/02 01:09:50;;;;;;;7.25;5.22;;;7.90;99.90;;;;;;4969159;28;20551;-80
2023/12/02 01:12:15;;;;;;;9.73;4.95;;;8.00;99.90;;;;;;4977104;28;20549;-80
2023/12/02 01:14:41;;;;;;;6.93;4.65;;;7.90;99.90;;;;;;4973608;28;20031;-80
2023/12/02 01:17:06;;;;;;;9.07;4.97;;;7.90;99.90;;;;;;4970172;28;20039;-80
2023/12/02 01:19:32;;;;;;;8.18;5.35;;;8.00;99.90;;;;;;4973112;28;20077;-80
2023/12/02 01:21:58;;;;;;;8.85;4.97;;;8.00;99.90;;;;;;4971816;28;20022;-80
2023/12/02 01:24:23;;;;;;;9.65;5.32;;;7.90;99.90;;;;;;4976529;28;20400;-80
2023/12/02 01:26:49;;;;;;;8.35;4.47;;;8.00;99.90;;;;;;4969452;28;20041;-80
2023/12/02 01:29:14;;;;;;;6.90;4.30;;;7.90;99.90;;;;;;4972543;28;20099;-79
2023/12/02 01:31:40;;;;;;;6.90;5.13;;;7.90;99.90;;;;;;4974086;28;20031;-80
2023/12/02 01:34:05;;;;;;;7.22;4.88;;;7.90;99.90;;;;;;4971882;28;20027;-80
2023/12/02 01:36:31;;;;;;;7.10;5.00;;;7.90;99.90;;;;;;4976832;28;20027;-80
2023/12/02 01:38:56;;;;;;;7.45;4.90;;;7.90;99.90;;;;;;4970632;28;20027;-80
2023/12/02 01:41:22;;;;;;;7.13;4.43;;;7.90;99.90;;;;;;4976236;28;20531;-80
2023/12/02 01:43:47;;;;;;;7.57;4.50;;;7.90;99.90;;;;;;4972882;28;20038;-80
2023/12/02 01:46:15;;;;;;;7.28;4.57;;;7.90;99.90;;;;;;4970792;28;20042;-80
2023/12/02 01:48:41;;;;;;;9.27;5.10;;;7.90;99.90;;;;;;4970775;28;20029;-79
2023/12/02 01:51:07;;;;;;;6.38;4.22;;;7.90;99.90;;;;;;4962997;28;20027;-80
2023/12/02 01:53:33;;;;;;;8.68;4.43;;;7.90;99.90;;;;;;4974881;28;20034;-80
2023/12/02 01:55:58;;;;;;;7.13;4.47;;;7.90;99.90;;;;;;4972216;28;20412;-80
2023/12/02 01:58:24;;;;;;;8.85;4.93;;;7.90;99.90;;;;;;4972250;28;20058;-79
2023/12/02 02:00:49;;;;;;;7.43;4.75;;;7.90;99.90;;;;;;4970161;28;20027;-79
2023/12/02 02:03:15;;;;;;;8.27;4.97;;;7.90;99.90;;;;;;4971425;28;20030;-80
2023/12/02 02:05:43;;;;;;;7.78;4.80;;;7.90;99.90;;;;;;4971595;28;20023;-80
2023/12/02 02:08:09;;;;;;;8.23;5.05;;;7.90;99.90;;;;;;4972068;28;20025;-79
2023/12/02 02:10:34;;;;;;;8.07;5.25;;;7.90;99.90;;;;;;4973431;28;20403;-80
2023/12/02 02:13:00;;;;;;;6.80;4.25;;;7.90;99.90;;;;;;4970240;28;20505;-80
2023/12/02 02:15:26;;;;;;;6.25;4.15;;;7.90;99.90;;;;;;4972368;28;20129;-80
2023/12/02 02:17:52;;;;;;;6.78;4.53;;;7.90;99.90;;;;;;4971749;28;20106;-80
2023/12/02 02:20:18;;;;;;;8.23;5.07;;;7.90;99.90;;;;;;4971726;28;20101;-80
2023/12/02 02:22:43;;;;;;;8.93;4.70;;;7.90;99.90;;;;;;4971522;28;20031;-80
2023/12/02 02:25:09;;;;;;;5.93;4.03;;;7.90;99.90;;;;;;4970192;28;20579;-80
2023/12/02 02:27:35;;;;;;;7.43;4.97;;;7.90;99.90;;;;;;4974540;28;20420;-80
2023/12/02 02:30:00;;;;;;;6.10;4.20;;;7.90;99.90;;;;;;4971724;28;20031;-79
2023/12/02 02:32:26;;;;;;;7.80;5.22;;;7.90;99.90;;;;;;4971801;28;20056;-82
2023/12/02 02:34:51;;;;;;;7.78;5.30;;;7.90;99.90;;;;;;4970107;28;20078;-80
2023/12/02 02:37:17;;;;;;;6.90;4.50;;;7.90;99.90;;;;;;4967686;28;20415;-80
2023/12/02 02:39:43;;;;;;;7.78;4.55;;;7.90;99.90;;;;;;4969317;28;20031;-80
2023/12/02 02:42:09;;;;;;;6.20;4.30;;;7.90;99.90;;;;;;4969402;28;20077;-79
2023/12/02 02:44:35;;;;;;;8.00;4.85;;;7.90;99.90;;;;;;4971973;28;20026;-80
2023/12/02 02:47:01;;;;;;;9.07;4.70;;;7.90;99.90;;;;;;4969138;28;20130;-79
2023/12/02 02:49:27;;;;;;;11.82;5.57;;;7.90;99.90;;;;;;4968541;28;20595;-80
2023/12/02 02:51:53;;;;;;;8.77;4.43;;;7.90;99.90;;;;;;4969442;28;20106;-80
2023/12/02 02:54:18;;;;;;;7.15;4.40;;;7.90;99.90;;;;;;4970663;28;20106;-80
2023/12/02 02:56:44;;;;;;;9.45;5.25;;;7.90;99.90;;;;;;4970860;28;20493;-80
2023/12/02 02:59:09;;;;;;;8.20;4.85;;;7.90;99.90;;;;;;4968898;28;20128;-81
2023/12/02 03:01:37;;;;;;;7.78;4.43;;;7.90;99.90;;;;;;4965452;28;20047;-80
2023/12/02 03:04:03;;;;;;;8.65;5.18;;;7.90;99.90;;;;;;4972625;28;20023;-80
2023/12/02 03:06:28;;;;;;;7.85;4.25;;;7.90;99.90;;;;;;4970089;28;20015;-81
2023/12/02 03:08:54;;;;;;;7.75;4.72;;;7.90;99.90;;;;;;4970469;28;20033;-80
2023/12/02 03:11:19;;;;;;;7.45;4.28;;;7.90;99.90;;;;;;4970824;28;20031;-80
2023/12/02 03:13:45;;;;;;;8.00;4.80;;;7.90;99.90;;;;;;4964300;28;20035;-80
2023/12/02 03:16:11;;;;;;;7.03;4.28;;;7.90;99.90;;;;;;4970013;28;20567;-80
2023/12/02 03:18:36;;;;;;;7.45;5.47;;;7.90;99.90;;;;;;4961652;28;20453;-80
2023/12/02 03:21:02;;;;;;;7.07;4.57;;;7.90;99.90;;;;;;4963814;28;20488;-80
2023/12/02 03:23:27;;;;;;;7.68;4.68;;;7.90;99.90;;;;;;4967796;28;20027;-80
2023/12/02 03:25:53;;;;;;;8.75;5.28;;;7.90;99.90;;;;;;4965625;28;20515;-81
2023/12/02 03:28:19;;;;;;;10.93;5.20;;;7.90;99.90;;;;;;4973815;28;20469;-80
2023/12/02 03:30:45;;;;;;;6.38;4.30;;;7.90;99.90;;;;;;4973242;28;20023;-80
2023/12/02 03:33:10;;;;;;;10.77;4.72;;;7.90;99.90;;;;;;4972833;28;20033;-80
2023/12/02 03:35:36;;;;;;;8.23;4.82;;;7.90;99.90;;;;;;4974183;28;20063;-81
2023/12/02 03:38:01;;;;;;;5.25;4.22;;;7.90;99.90;;;;;;4971219;28;20054;-81
2023/12/02 03:40:27;;;;;;;10.23;5.40;;;7.90;99.90;;;;;;4971659;28;20058;-80
2023/12/02 03:42:53;;;;;;;6.85;4.63;;;7.90;99.90;;;;;;4973726;28;20018;-80
2023/12/02 03:45:18;;;;;;;6.88;4.25;;;7.90;99.90;;;;;;4973393;28;20018;-80
2023/12/02 03:47:44;;;;;;;7.63;4.65;;;7.90;99.90;;;;;;4965026;28;20031;-79
2023/12/02 03:50:10;;;;;;;7.30;4.88;;;7.90;99.90;;;;;;4972703;28;20034;-80
2023/12/02 03:52:36;;;;;;;7.80;4.72;;;7.90;99.90;;;;;;4985530;28;20032;-80
2023/12/02 03:55:01;;;;;;;8.45;5.22;;;7.90;99.90;;;;;;4971537;28;20054;-80
2023/12/02 03:57:27;;;;;;;9.30;5.13;;;7.90;99.90;;;;;;4974949;28;20256;-80
2023/12/02 03:59:53;;;;;;;7.97;5.18;;;7.90;99.90;;;;;;4974708;28;20496;-79
2023/12/02 04:02:18;;;;;;;7.95;4.53;;;7.90;99.90;;;;;;4972014;28;20031;-80
2023/12/02 04:04:44;;;;;;;9.57;4.97;;;7.80;99.90;;;;;;4975622;28;20077;-80
2023/12/02 04:07:09;;;;;;;8.52;5.30;;;7.90;99.90;;;;;;4972544;28;20139;-80
2023/12/02 04:09:35;;;;;;;9.10;4.85;;;7.90;99.90;;;;;;4975092;28;20026;-80
2023/12/02 04:12:00;;;;;;;9.00;5.05;;;7.80;99.90;;;;;;4973758;28;20030;-80
2023/12/02 04:14:26;;;;;;;8.00;5.00;;;7.90;99.90;;;;;;4971559;28;20029;-79
2023/12/02 04:16:51;;;;;;;11.50;6.03;;;7.90;99.90;;;;;;4970210;28;20023;-80
2023/12/02 04:19:17;;;;;;;11.05;5.85;;;7.90;99.90;;;;;;4967605;28;20027;-81
2023/12/02 04:21:44;;;;;;;8.15;4.72;;;7.90;99.90;;;;;;4972150;28;20038;-80
2023/12/02 04:24:10;;;;;;;8.65;4.80;;;7.90;99.90;;;;;;4973101;28;20062;-80
2023/12/02 04:26:36;;;;;;;9.52;5.65;;;7.90;99.90;;;;;;4971320;28;20555;-79
2023/12/02 04:29:02;;;;;;;10.80;6.20;;;7.80;99.90;;;;;;4969884;28;20493;-79
2023/12/02 04:31:28;;;;;;;9.93;5.75;;;7.80;99.90;;;;;;4974012;28;20037;-80
2023/12/02 04:33:53;;;;;;;10.35;5.93;;;7.90;99.90;;;;;;4972629;28;20038;-79
2023/12/02 04:36:19;;;;;;;11.55;5.97;;;7.80;99.90;;;;;;4971186;28;20022;-80
2023/12/02 04:38:45;;;;;;;11.00;6.22;;;7.80;99.90;;;;;;4971829;28;20030;-80
2023/12/02 04:41:10;;;;;;;9.10;4.97;;;7.80;99.90;;;;;;4964331;28;20448;-80
2023/12/02 04:43:36;;;;;;;11.70;5.72;;;7.80;99.90;;;;;;4973473;28;20146;-80
2023/12/02 04:46:02;;;;;;;9.32;5.68;;;7.80;99.90;;;;;;4972650;28;20046;-80
2023/12/02 04:48:27;;;;;;;19.08;6.40;;;7.80;99.90;;;;;;4972666;28;20093;-80
2023/12/02 04:50:53;;;;;;;11.25;6.72;;;7.80;99.90;;;;;;4966553;28;20065;-80
2023/12/02 04:53:19;;;;;;;9.98;5.63;;;7.80;99.90;;;;;;4959045;28;20030;-80
2023/12/02 04:55:46;;;;;;;9.85;5.93;;;7.80;99.90;;;;;;4970437;28;20480;-81
2023/12/02 04:58:11;;;;;;;11.65;5.90;;;7.90;99.90;;;;;;4971858;28;20550;-80
2023/12/02 05:00:37;;;;;;;13.05;6.05;;;7.80;99.90;;;;;;4972402;28;20031;-81
2023/12/02 05:03:03;;;;;;;9.23;5.88;;;7.90;99.90;;;;;;4972483;28;20030;-80
2023/12/02 05:05:28;;;;;;;11.25;6.03;;;7.80;99.90;;;;;;4972243;28;20018;-80
2023/12/02 05:07:54;;;;;;;11.55;6.28;;;7.80;99.90;;;;;;4969332;28;20023;-80
2023/12/02 05:10:20;;;;;;;7.93;5.38;;;7.80;99.90;;;;;;4972227;28;20098;-79
2023/12/02 05:12:45;;;;;;;11.55;6.18;;;7.90;99.90;;;;;;4976866;28;20443;-79
2023/12/02 05:15:11;;;;;;;11.40;6.60;;;7.80;99.90;;;;;;4977314;28;20060;-79
2023/12/02 05:17:37;;;;;;;12.45;6.22;;;7.80;99.90;;;;;;4970928;28;20154;-79
2023/12/02 05:20:02;;;;;;;14.30;6.38;;;7.80;99.90;;;;;;4974683;28;20034;-80
2023/12/02 05:22:28;;;;;;;15.43;7.25;;;7.90;99.90;;;;;;4978313;28;20026;-79
2023/12/02 05:24:54;;;;;;;14.38;7.20;;;7.90;99.90;;;;;;4976643;28;20018;-79
2023/12/02 05:27:19;;;;;;;16.90;6.85;;;7.90;99.90;;;;;;4975332;28;20026;-80
2023/12/02 05:29:45;;;;;;;11.60;6.28;;;7.80;99.90;;;;;;4978662;28;20027;-79
2023/12/02 05:32:11;;;;;;;12.70;6.78;;;7.90;99.90;;;;;;4973159;28;20033;-79
2023/12/02 05:34:36;;;;;;;14.90;7.07;;;7.80;99.90;;;;;;4975392;28;20055;-80
2023/12/02 05:37:02;;;;;;;14.93;6.63;;;7.80;99.90;;;;;;4975740;28;20031;-79
2023/12/02 05:39:28;;;;;;;12.98;7.40;;;7.80;99.90;;;;;;4976549;28;20051;-80
2023/12/02 05:41:54;;;;;;;13.77;6.72;;;7.80;99.90;;;;;;4978610;28;20051;-79
2023/12/02 05:44:19;;;;;;;13.75;7.55;;;7.80;99.90;;;;;;4972652;28;20555;-79
2023/12/02 05:46:45;;;;;;;14.63;7.47;;;7.80;99.90;;;;;;4975260;28;20025;-80
2023/12/02 05:49:11;;;;;;;13.77;7.35;;;7.90;99.90;;;;;;4975857;28;20019;-80
2023/12/02 05:51:38;;;;;;;14.77;7.50;;;7.80;99.90;;;;;;4975095;28;20139;-80
2023/12/02 05:54:06;;;;;;;12.20;6.35;;;7.90;99.90;;;;;;4972443;28;20453;-80
2023/12/02 05:56:32;;;;;;;14.25;7.32;;;7.80;99.90;;;;;;4972860;28;20081;-80
2023/12/02 05:58:57;;;;;;;15.30;7.72;;;7.80;99.90;;;;;;4973754;28;20026;-79
2023/12/02 06:01:23;;;;;;;14.82;7.63;;;7.80;99.90;;;;;;4975334;28;20412;-79
2023/12/02 06:03:49;;;;;;;12.60;7.22;;;7.80;99.90;;;;;;4976093;28;20023;-80
2023/12/02 06:06:15;;;;;;;11.80;7.60;;;7.80;99.90;;;;;;4973536;28;20021;-80
2023/12/02 06:08:40;;;;;;;12.90;7.32;;;7.80;99.90;;;;;;4973081;28;20023;-80
2023/12/02 06:11:06;;;;;;;16.70;7.47;;;7.80;99.90;;;;;;4972456;28;20026;-80
2023/12/02 06:13:32;;;;;;;13.35;6.85;;;7.80;99.90;;;;;;4973868;28;20022;-80
2023/12/02 06:15:57;;;;;;;13.90;7.25;;;7.80;99.90;;;;;;4974653;28;20030;-80
2023/12/02 06:18:23;;;;;;;18.45;8.40;;;7.80;99.90;;;;;;4971317;28;20074;-79
2023/12/02 06:20:49;;;;;;;14.27;7.60;;;7.80;99.90;;;;;;4967383;28;20046;-80
2023/12/02 06:23:14;;;;;;;14.43;8.02;;;7.80;99.90;;;;;;4972714;28;20034;-80
2023/12/02 06:25:40;;;;;;;16.67;7.32;;;7.80;99.90;;;;;;4973743;28;20042;-79
2023/12/02 06:28:06;;;;;;;17.05;7.40;;;7.80;99.90;;;;;;4974821;28;20031;-79
2023/12/02 06:30:31;;;;;;;14.98;7.25;;;7.80;99.90;;;;;;4986990;28;20510;-80
2023/12/02 06:32:57;;;;;;;16.27;7.95;;;7.80;99.90;;;;;;4974819;28;20023;-80
2023/12/02 06:35:23;;;;;;;15.40;7.82;;;7.80;99.90;;;;;;4973673;28;20037;-80
2023/12/02 06:37:48;;;;;;;15.68;8.13;;;7.80;99.90;;;;;;4973899;28;20543;-79
2023/12/02 06:40:14;;;;;;;17.85;8.30;;;7.80;99.90;;;;;;4965060;28;20029;-80
2023/12/02 06:42:40;;;;;;;15.52;8.13;;;7.80;99.90;;;;;;4971258;28;20058;-81
2023/12/02 06:45:06;;;;;;;16.58;7.93;;;7.80;99.90;;;;;;4970938;28;20548;-80
2023/12/02 06:47:32;;;;;;;14.90;8.32;;;7.80;99.90;;;;;;4971272;28;20058;-80
2023/12/02 06:49:58;;;;;;;18.08;8.90;;;7.80;99.90;;;;;;4973681;28;20023;-80
2023/12/02 06:52:23;;;;;;;16.33;8.32;;;7.80;99.90;;;;;;4973112;28;20027;-80
2023/12/02 06:54:49;;;;;;;15.80;8.10;;;7.80;99.90;;;;;;4972125;28;20052;-81
2023/12/02 06:57:14;;;;;;;16.55;8.27;;;7.80;99.90;;;;;;4967587;28;20119;-80
2023/12/02 06:59:40;;;;;;;16.27;8.52;;;7.80;99.90;;;;;;4969464;28;20059;-80
2023/12/02 07:02:06;;;;;;;16.63;8.68;;;7.80;99.90;;;;;;4972680;28;20030;-80
2023/12/02 07:04:32;;;;;;;20.42;7.97;;;7.80;99.90;;;;;;4969081;28;20031;-79
2023/12/02 07:06:57;;;;;;;13.93;7.57;;;7.80;99.90;;;;;;4969935;28;20485;-80
2023/12/02 07:09:23;;;;;;;15.70;8.13;;;7.80;99.90;;;;;;4970103;28;20430;-80
2023/12/02 07:11:48;;;;;;;14.95;7.57;;;7.80;99.90;;;;;;4967133;28;20023;-80
2023/12/02 07:14:14;;;;;;;13.43;7.15;;;7.80;99.90;;;;;;4970166;28;20027;-80
2023/12/02 07:16:39;;;;;;;14.55;7.93;;;7.80;99.90;;;;;;4972379;28;20026;-80
2023/12/02 07:19:05;;;;;;;15.90;8.27;;;7.80;99.90;;;;;;4972084;28;20022;-80
2023/12/02 07:21:30;;;;;;;17.65;7.82;;;7.80;99.90;;;;;;4971752;28;20392;-79
2023/12/02 07:23:57;;;;;;;17.08;8.77;;;7.80;99.90;;;;;;4968719;28;20506;-80
2023/12/02 07:26:22;;;;;;;18.23;8.95;;;7.80;99.90;;;;;;4961876;28;20058;-80
2023/12/02 07:28:48;;;;;;;15.25;8.25;;;7.80;99.90;;;;;;4971843;28;20062;-79
2023/12/02 07:31:15;;;;;;;23.52;9.70;;;7.80;99.90;;;;;;4970304;28;20046;-81
2023/12/02 07:33:41;;;;;;;12.85;4.75;;;7.80;99.90;;;;;;4964425;28;20050;-73
2023/12/02 07:36:07;;;;;;;8.77;4.03;;;10.30;99.90;;;;;;4966499;28;20053;-74
2023/12/02 07:38:33;;;;;;;12.35;6.53;;;11.80;99.90;;;;;;4968829;28;20023;-80
2023/12/02 07:40:58;;;;;;;16.90;5.65;;;10.50;99.90;;;;;;4969977;28;20551;-80
2023/12/02 07:43:24;;;;;;;11.95;6.00;;;9.20;99.90;;;;;;4971506;28;20027;-80
2023/12/02 07:45:50;;;;;;;12.45;6.20;;;8.60;99.90;;;;;;4962938;28;20397;-79
2023/12/02 07:48:16;;;;;;;12.27;6.05;;;8.30;99.90;;;;;;4967872;28;20397;-82
2023/12/02 07:50:41;;;;;;;16.17;6.20;;;8.10;99.90;;;;;;4969076;28;20030;-80
2023/12/02 07:53:07;;;;;;;14.45;6.60;;;8.00;99.90;;;;;;4971208;28;20030;-80
2023/12/02 07:55:32;;;;;;;14.80;6.18;;;8.00;99.90;;;;;;4970167;28;20826;-81
2023/12/02 07:57:58;;;;;;;13.15;7.28;;;8.00;99.90;;;;;;4971167;28;20404;-81
2023/12/02 08:00:24;;;;;;;13.75;6.75;;;8.00;99.90;;;;;;4970530;28;20049;-81
2023/12/02 08:02:49;;;;;;;16.42;7.00;;;7.90;99.90;;;;;;4969580;28;20029;-79
2023/12/02 08:05:15;;;;;;;13.70;6.95;;;7.90;99.90;;;;;;4969328;28;20384;-81
2023/12/02 08:07:41;;;;;;;14.85;6.50;;;7.90;99.90;;;;;;4969264;28;20399;-80
2023/12/02 08:10:07;;;;;;;14.63;6.80;;;7.90;99.90;;;;;;4967298;28;20505;-80
2023/12/02 08:12:33;;;;;;;14.93;7.40;;;7.90;99.90;;;;;;4967318;28;20027;-80
2023/12/02 08:14:58;;;;;;;14.98;6.63;;;7.80;99.90;;;;;;4971848;28;20523;-80
2023/12/02 08:17:24;;;;;;;13.45;7.22;;;7.90;99.90;;;;;;4968120;28;20031;-80
2023/12/02 08:19:49;;;;;;;11.98;6.85;;;7.90;99.90;;;;;;4984795;28;20093;-83
2023/12/02 08:22:19;;;;;;;13.38;6.40;;;7.90;99.90;;;;;;4965520;28;20019;-80
2023/12/02 08:24:45;;;;;;;14.48;7.22;;;7.80;99.90;;;;;;4963916;28;20489;-81
2023/12/02 08:27:11;;;;;;;12.68;6.72;;;7.80;99.90;;;;;;4964502;28;20089;-81
2023/12/02 08:29:36;;;;;;;13.25;6.90;;;7.80;99.90;;;;;;4966502;28;20392;-80
2023/12/02 08:32:03;;;;;;;12.57;6.28;;;7.80;99.90;;;;;;4968170;28;20393;-81
2023/12/02 08:34:29;;;;;;;13.50;6.45;;;7.90;99.90;;;;;;4963702;28;20105;-81
2023/12/02 08:36:55;;;;;;;13.75;6.60;;;7.80;99.90;;;;;;4967778;28;20676;-80
2023/12/02 08:39:21;;;;;;;11.65;6.18;;;7.80;99.90;;;;;;4966910;28;20027;-80
2023/12/02 08:41:46;;;;;;;17.25;7.18;;;7.80;99.90;;;;;;4963794;28;20046;-81
2023/12/02 08:44:12;;;;;;;14.35;6.30;;;7.80;99.90;;;;;;4968795;28;20027;-81
2023/12/02 08:46:38;;;;;;;16.27;6.93;;;7.80;99.90;;;;;;4964943;28;20151;-81
2023/12/02 08:49:03;;;;;;;10.80;5.90;;;7.80;99.90;;;;;;4967874;28;20027;-81
2023/12/02 08:51:29;;;;;;;10.18;5.50;;;7.80;99.90;;;;;;4961318;28;20570;-80
2023/12/02 08:54:02;;;;;;;10.10;5.93;;;7.80;99.90;;;;;;4966266;28;20030;-80
2023/12/02 08:56:28;;;;;;;9.25;5.55;;;7.80;99.90;;;;;;4967678;28;20530;-80
2023/12/02 08:58:54;;;;;;;12.77;5.60;;;7.80;99.90;;;;;;4967149;28;20089;-81
2023/12/02 09:01:20;;;;;;;9.52;5.90;;;7.80;99.90;;;;;;4967229;28;20113;-80
2023/12/02 09:03:46;;;;;;;9.43;5.20;;;7.80;99.90;;;;;;4960654;28;20428;-81
2023/12/02 09:06:11;;;;;;;8.82;5.82;;;7.80;99.90;;;;;;4965071;28;20050;-80
2023/12/02 09:08:37;;;;;;;10.07;5.95;;;7.80;99.90;;;;;;4966525;28;20031;-80
2023/12/02 09:11:04;;;;;;;9.73;5.35;;;7.80;99.90;;;;;;4965044;28;20023;-80
2023/12/02 09:13:46;;;;;;;11.38;5.75;;;7.80;99.90;;;;;;4962342;28;20070;-79
2023/12/02 09:16:21;;;;;;;10.40;5.70;;;7.80;99.90;;;;;;4964658;28;20038;-79
2023/12/02 09:18:48;;;;;;;11.15;5.68;;;7.80;99.90;;;;;;4965678;28;20034;-80
2023/12/02 09:21:44;;;;;;;10.18;5.95;;;7.80;99.90;;;;;;4962418;28;20026;-79
2023/12/02 09:24:40;;;;;;;8.18;4.72;;;7.80;99.90;;;;;;4954859;28;20377;-79
2023/12/02 09:27:07;;;;;;;12.88;5.38;;;7.80;99.90;;;;;;4953762;28;20035;-80
2023/12/02 09:29:43;;;;;;;7.68;4.53;;;7.80;99.90;;;;;;4967619;28;20062;-80
2023/12/02 09:32:24;;;;;;;10.82;5.40;;;7.80;99.90;;;;;;4964288;28;20512;-80
2023/12/02 09:35:00;;;;;;;8.88;4.70;;;7.80;99.90;;;;;;4966614;28;20567;-80
2023/12/02 09:37:51;;;;;;;7.78;5.32;;;7.80;99.90;;;;;;4966599;28;20035;-80
2023/12/02 09:40:19;;;;;;;8.82;5.50;;;7.90;99.90;;;;;;4984250;28;20030;-80
2023/12/02 09:42:54;;;;;;;9.48;5.07;;;7.80;99.90;;;;;;4961873;28;20038;-80
2023/12/02 09:45:28;;;;;;;9.50;4.63;;;7.80;99.90;;;;;;4965992;28;20033;-80
2023/12/02 09:48:05;;;;;;;9.05;5.03;;;7.80;99.90;;;;;;4960317;28;20046;-81
2023/12/02 09:50:38;;;;;;;9.82;5.68;;;7.80;99.90;;;;;;4966631;28;20034;-80
2023/12/02 09:53:03;;;;;;;8.02;4.90;;;7.80;99.90;;;;;;4978963;28;20119;-80
2023/12/02 09:55:43;;;;;;;6.68;4.25;;;7.80;99.90;;;;;;4964752;28;20027;-80
2023/12/02 09:58:29;;;;;;;7.53;4.57;;;7.80;99.90;;;;;;4973060;28;20549;-80
2023/12/02 10:01:25;;;;;;;7.90;5.28;;;7.80;99.90;;;;;;4964924;28;20027;-80
2023/12/02 10:04:09;;;;;;;9.05;5.13;;;7.80;99.90;;;;;;4966157;28;20034;-80
2023/12/02 10:06:51;;;;;;;8.10;4.60;;;7.80;99.90;;;;;;4965627;28;20602;-80
2023/12/02 10:09:16;;;;;;;9.18;5.00;;;7.80;99.90;;;;;;4962090;28;20038;-80
2023/12/02 10:11:49;;;;;;;8.85;5.13;;;7.80;99.90;;;;;;4961453;28;20031;-81
2023/12/02 10:14:21;;;;;;;9.45;5.22;;;7.80;99.90;;;;;;4963939;28;20026;-80
2023/12/02 10:16:50;;;;;;;8.70;5.07;;;7.80;99.90;;;;;;4960820;28;20030;-80
2023/12/02 10:19:29;;;;;;;10.85;5.88;;;7.80;99.90;;;;;;4960281;28;20054;-81
2023/12/02 10:21:59;;;;;;;7.15;4.90;;;7.80;99.90;;;;;;4966082;28;20522;-79
2023/12/02 10:24:44;;;;;;;9.15;5.63;;;7.80;99.90;;;;;;4967042;28;20444;-80
2023/12/02 10:27:16;;;;;;;9.77;5.28;;;7.80;99.90;;;;;;4972561;28;20027;-81
2023/12/02 10:29:45;;;;;;;9.98;5.57;;;7.80;99.90;;;;;;4963615;28;20024;-79
2023/12/02 10:32:31;;;;;;;12.77;6.22;;;7.80;99.90;;;;;;4966078;28;20022;-80
2023/12/02 10:35:24;;;;;;;7.65;5.25;;;7.80;99.90;;;;;;4962826;28;20101;-80
2023/12/02 10:38:02;;;;;;;11.35;6.03;;;7.80;99.90;;;;;;4967357;28;20113;-80
2023/12/02 10:40:29;;;;;;;10.15;5.88;;;7.80;99.90;;;;;;4975451;28;20035;-79
2023/12/02 10:43:14;;;;;;;10.95;5.55;;;7.80;99.90;;;;;;4965376;28;20027;-80
2023/12/02 10:45:41;;;;;;;5.63;3.50;;;7.80;99.90;;;;;;4968025;28;20054;-80
2023/12/02 10:48:09;;;;;;;6.75;3.50;;;9.70;99.90;;;;;;4962642;28;20030;-79
2023/12/02 10:50:35;;;;;;;5.05;3.40;;;8.80;99.90;;;;;;4966681;28;20169;-80
2023/12/02 10:53:03;;;;;;;6.70;3.88;;;8.40;99.90;;;;;;4961478;28;20042;-80
2023/12/02 10:55:32;;;;;;;6.72;3.63;;;8.20;99.90;;;;;;4961828;28;20023;-80
2023/12/02 10:57:59;;;;;;;7.82;4.70;;;8.00;99.90;;;;;;4960913;28;20091;-81
2023/12/02 11:00:29;;;;;;;9.70;5.32;;;8.00;99.90;;;;;;4964113;28;20388;-80
2023/12/02 11:03:04;;;;;;;11.05;5.40;;;7.90;99.90;;;;;;4969228;28;20114;-80
2023/12/02 11:05:41;;;;;;;9.18;5.20;;;7.90;99.90;;;;;;4959980;28;20045;-80
2023/12/02 11:08:12;;;;;;;12.90;5.88;;;7.90;99.90;;;;;;4980454;28;20034;-79
2023/12/02 11:10:47;;;;;;;9.82;5.60;;;7.90;99.90;;;;;;4963212;28;20066;-81
2023/12/02 11:13:19;;;;;;;11.60;6.47;;;7.80;99.90;;;;;;4965309;28;20035;-81
2023/12/02 11:16:29;;;;;;;9.20;5.90;;;7.80;99.90;;;;;;4963447;28;20034;-80
2023/12/02 11:19:23;;;;;;;11.35;6.22;;;7.80;99.90;;;;;;4965107;28;20039;-80
2023/12/02 11:22:12;;;;;;;10.25;6.38;;;7.80;99.90;;;;;;4966459;28;20030;-80
2023/12/02 11:24:46;;;;;;;11.65;6.25;;;7.80;99.90;;;;;;4962040;28;20361;-80
2023/12/02 11:27:27;;;;;;;16.58;7.07;;;7.80;99.90;;;;;;4963816;28;20018;-80
2023/12/02 11:30:16;;;;;;;13.40;6.18;;;7.80;99.90;;;;;;4964194;28;20742;-80
2023/12/02 11:32:57;;;;;;;13.07;6.75;;;7.80;99.90;;;;;;4966467;28;20081;-80
2023/12/02 11:35:35;;;;;;;11.90;6.43;;;7.80;99.90;;;;;;4959024;28;20019;-81
2023/12/02 11:38:19;;;;;;;10.65;6.25;;;7.80;99.90;;;;;;4966632;28;20055;-80
2023/12/02 11:41:04;;;;;;;13.40;7.25;;;7.80;99.90;;;;;;4967218;28;20034;-80
2023/12/02 11:44:00;;;;;;;15.68;7.07;;;7.80;99.90;;;;;;4983407;28;20044;-79
2023/12/02 11:46:33;;;;;;;11.02;6.15;;;7.80;99.90;;;;;;4969067;28;20102;-80
2023/12/02 11:49:05;;;;;;;14.48;7.55;;;7.80;99.90;;;;;;4971720;28;20042;-80
2023/12/02 11:51:55;;;;;;;10.68;6.50;;;7.80;99.90;;;;;;4982516;28;20030;-79
2023/12/02 11:54:37;;;;;;;11.68;6.55;;;7.80;99.90;;;;;;4971161;28;20069;-79
2023/12/02 11:57:41;;;;;;;12.20;6.63;;;7.80;99.90;;;;;;4976034;28;20498;-80
2023/12/02 12:00:11;;;;;;;15.73;7.72;;;7.80;99.90;;;;;;4972597;28;20062;-78
2023/12/02 12:03:18;;;;;;;12.77;6.47;;;7.80;99.90;;;;;;4976931;28;20066;-79
2023/12/02 12:06:16;;;;;;;14.52;6.78;;;7.80;99.90;;;;;;4953999;28;20035;-79
2023/12/02 12:09:07;;;;;;;11.73;6.72;;;7.80;99.90;;;;;;4970508;28;20054;-79
2023/12/02 12:11:34;;;;;;;12.77;6.57;;;7.80;99.90;;;;;;4970354;28;20031;-79
2023/12/02 12:14:02;;;;;;;11.63;6.68;;;7.80;99.90;;;;;;4974498;28;20019;-80
2023/12/02 12:16:27;;;;;;;12.68;6.68;;;7.80;99.90;;;;;;4974868;28;20105;-80
2023/12/02 12:18:53;;;;;;;12.48;6.72;;;7.80;99.90;;;;;;4972481;28;20030;-80
2023/12/02 12:21:18;;;;;;;14.10;7.57;;;7.80;99.90;;;;;;4974502;28;20492;-80
2023/12/02 12:23:46;;;;;;;12.25;6.38;;;7.80;99.90;;;;;;4975253;28;20031;-81
2023/12/02 12:26:12;;;;;;;12.95;7.00;;;7.80;99.90;;;;;;4984990;28;20030;-81
2023/12/02 12:28:39;;;;;;;15.30;7.28;;;7.80;99.90;;;;;;4973565;28;20034;-81
2023/12/02 12:31:08;;;;;;;15.07;7.82;;;7.80;99.90;;;;;;4969167;28;20113;-79
2023/12/02 12:33:37;;;;;;;14.82;7.35;;;7.80;99.90;;;;;;4971347;28;20090;-80
2023/12/02 12:36:03;;;;;;;14.48;7.50;;;7.80;99.90;;;;;;4973187;28;20046;-79
2023/12/02 12:38:29;;;;;;;15.38;7.40;;;7.80;99.90;;;;;;4972256;28;20408;-80
2023/12/02 12:40:56;;;;;;;13.10;7.15;;;7.80;99.90;;;;;;4972303;28;20071;-79
2023/12/02 12:43:23;;;;;;;14.50;7.60;;;7.80;99.90;;;;;;4977545;28;20463;-80
2023/12/02 12:45:51;;;;;;;13.30;7.85;;;7.80;99.90;;;;;;4968984;28;20114;-78
2023/12/02 12:48:26;;;;;;;13.75;7.13;;;7.80;99.90;;;;;;4972460;28;20023;-75
2023/12/02 12:50:55;;;;;;;12.95;7.22;;;7.80;99.90;;;;;;4970096;28;20062;-80
2023/12/02 12:53:29;;;;;;;11.40;6.63;;;7.80;99.90;;;;;;4974687;28;20030;-78
2023/12/02 12:56:08;;;;;;;12.57;6.97;;;7.80;99.90;;;;;;4966415;28;20034;-80
2023/12/02 12:58:52;;;;;;;19.48;8.20;;;7.80;99.90;;;;;;4965247;28;20605;-84